Terminal Aerodrome Forecast
Issued by NWS

Home | Current Version | Previous Version | Text Only | Print | Product List | Glossary On
Versions: 1 2 3 4 5 6 7 8 9 10 11 12 13 14
988
FTUS45 KREV 190255 AAA
TAFMMH
TAF AMD
KMMH 190255Z 1903/1924 25020G32KT P6SM SCT040 BKN050
     FM190600 27019G32KT P6SM VCSH BKN040
     FM191600 29015G25KT P6SM VCSH SCT040 BKN060=

USA.gov is the U.S. government's official web portal to all federal, state and local government web resources and services.